Time;durP1;ratioP1;P1;durP2;ratioP2;P2;SDS_P1;SDS_P2;PMS_P1;PMS_P2;Temp;Humidity;BMP_temperature;BMP_pressure;BME280_temperature;BME280_humidity;BME280_pressure;Samples;Min_cycle;Max_cycle;Signal;HPM_P1;HPM_P2
2023/11/12 00:02:09;;;;;;;;;;;;;;;;;;5070326;28;19924;-71
2023/11/12 00:04:36;;;;;;;;;;;;;;;;;;5064203;28;19959;-71
2023/11/12 00:07:03;;;;;;;;;;;;;;;;;;5070568;28;19989;-71
2023/11/12 00:09:30;;;;;;;;;;;;;;;;;;5072287;28;19928;-72
2023/11/12 00:11:58;;;;;;;;;;;;;;;;;;5070008;28;19925;-72
2023/11/12 00:14:25;;;;;;;;;;;;;;;;;;5070316;28;20383;-71
2023/11/12 00:16:52;;;;;;;;;;;;;;;;;;5070315;28;20046;-71
2023/11/12 00:19:19;;;;;;;;;;;;;;;;;;5071326;28;20280;-72
2023/11/12 00:21:47;;;;;;;;;;;;;;;;;;5069705;28;19971;-72
2023/11/12 00:24:15;;;;;;;;;;;;;;;;;;5069553;28;19931;-72
2023/11/12 00:26:42;;;;;;;;;;;;;;;;;;5071729;28;19949;-71
2023/11/12 00:29:09;;;;;;;;;;;;;;;;;;5070131;28;20003;-72
2023/11/12 00:31:37;;;;;;;;;;;;;;;;;;5070288;28;20012;-71
2023/11/12 00:34:04;;;;;;;;;;;;;;;;;;5073997;28;19929;-72
2023/11/12 00:36:31;;;;;;;;;;;;;;;;;;5073925;28;19932;-72
2023/11/12 00:38:58;;;;;;;;;;;;;;;;;;5073897;28;19971;-72
2023/11/12 00:41:25;;;;;;;;;;;;;;;;;;5073535;28;19964;-71
2023/11/12 00:43:54;;;;;;;;;;;;;;;;;;5075605;28;19979;-71
2023/11/12 00:46:21;;;;;;;;;;;;;;;;;;5074864;28;19931;-71
2023/11/12 00:48:48;;;;;;;;;;;;;;;;;;5076255;28;20435;-71
2023/11/12 00:51:15;;;;;;;;;;;;;;;;;;5069813;28;20394;-71
2023/11/12 00:53:42;;;;;;;;;;;;;;;;;;5072760;28;19925;-71
2023/11/12 00:56:10;;;;;;;;;;;;;;;;;;5060710;28;19924;-71
2023/11/12 00:58:37;;;;;;;;;;;;;;;;;;5074735;28;19957;-72
2023/11/12 01:01:04;;;;;;;;;;;;;;;;;;5075605;28;19925;-71
2023/11/12 01:03:32;;;;;;;;;;;;;;;;;;5074068;28;20302;-72
2023/11/12 01:05:59;;;;;;;;;;;;;;;;;;5073481;28;19924;-71
2023/11/12 01:08:26;;;;;;;;;;;;;;;;;;5070398;28;19925;-72
2023/11/12 01:10:54;;;;;;;;;;;;;;;;;;5075466;28;20355;-71
2023/11/12 01:13:21;;;;;;;;;;;;;;;;;;5074174;28;19951;-71
2023/11/12 01:15:48;;;;;;;;;;;;;;;;;;5074526;28;19951;-71
2023/11/12 01:18:16;;;;;;;;;;;;;;;;;;5073740;28;19964;-71
2023/11/12 01:20:43;;;;;;;;;;;;;;;;;;5073729;28;20398;-71
2023/11/12 01:23:10;;;;;;;;;;;;;;;;;;5072566;28;19960;-70
2023/11/12 01:25:37;;;;;;;;;;;;;;;;;;5072432;28;19925;-70
2023/11/12 01:28:04;;;;;;;;;;;;;;;;;;5073073;28;19924;-70
2023/11/12 01:30:31;;;;;;;;;;;;;;;;;;5073326;28;19924;-70
2023/11/12 01:32:58;;;;;;;;;;;;;;;;;;5073288;28;19999;-71
2023/11/12 01:35:25;;;;;;;;;;;;;;;;;;5069521;28;19924;-71
2023/11/12 01:37:52;;;;;;;;;;;;;;;;;;5074045;28;19930;-72
2023/11/12 01:40:22;;;;;;;;;;;;;;;;;;5073217;28;19932;-70
2023/11/12 01:42:49;;;;;;;;;;;;;;;;;;5071994;28;19928;-71
2023/11/12 01:45:16;;;;;;;;;;;;;;;;;;5071499;28;19932;-71
2023/11/12 01:47:44;;;;;;;;;;;;;;;;;;5072654;28;19925;-71
2023/11/12 01:50:12;;;;;;;;;;;;;;;;;;5073880;28;20333;-71
2023/11/12 01:52:39;;;;;;;;;;;;;;;;;;5073951;28;19931;-70
2023/11/12 01:55:06;;;;;;;;;;;;;;;;;;5072829;28;19968;-70
2023/11/12 01:57:36;;;;;;;;;;;;;;;;;;5072964;28;19925;-70
2023/11/12 02:00:10;;;;;;;;;;;;;;;;;;5071848;28;19924;-70
2023/11/12 02:02:37;;;;;;;;;;;;;;;;;;5072463;28;19946;-70
2023/11/12 02:05:06;;;;;;;;;;;;;;;;;;5072095;28;19925;-69
2023/11/12 02:07:33;;;;;;;;;;;;;;;;;;5073631;28;20007;-69
2023/11/12 02:10:08;;;;;;;;;;;;;;;;;;5073801;28;19924;-70
2023/11/12 02:12:35;;;;;;;;;;;;;;;;;;5073703;28;20291;-69
2023/11/12 02:15:02;;;;;;;;;;;;;;;;;;5071172;28;20013;-71
2023/11/12 02:17:31;;;;;;;;;;;;;;;;;;5068167;28;19932;-70
2023/11/12 02:19:59;;;;;;;;;;;;;;;;;;5072460;28;19924;-70
2023/11/12 02:22:26;;;;;;;;;;;;;;;;;;5073539;28;19931;-70
2023/11/12 02:24:53;;;;;;;;;;;;;;;;;;5072176;28;19980;-70
2023/11/12 02:27:20;;;;;;;;;;;;;;;;;;5072616;28;20454;-70
2023/11/12 02:29:47;;;;;;;;;;;;;;;;;;5073116;28;20280;-70
2023/11/12 02:32:14;;;;;;;;;;;;;;;;;;5070852;28;20043;-70
2023/11/12 02:34:41;;;;;;;;;;;;;;;;;;5070833;28;20028;-70
2023/11/12 02:37:08;;;;;;;;;;;;;;;;;;5071611;28;20020;-70
2023/11/12 02:39:35;;;;;;;;;;;;;;;;;;5072530;28;20027;-70
2023/11/12 02:42:03;;;;;;;;;;;;;;;;;;5073880;28;19925;-70
2023/11/12 02:44:30;;;;;;;;;;;;;;;;;;5070093;28;20045;-69
2023/11/12 02:46:57;;;;;;;;;;;;;;;;;;5070688;28;19979;-69
2023/11/12 02:49:24;;;;;;;;;;;;;;;;;;5069540;28;20015;-69
2023/11/12 02:51:51;;;;;;;;;;;;;;;;;;5072912;28;20022;-69
2023/11/12 02:54:18;;;;;;;;;;;;;;;;;;5070398;28;20023;-70
2023/11/12 02:56:45;;;;;;;;;;;;;;;;;;5070784;28;20011;-70
2023/11/12 02:59:12;;;;;;;;;;;;;;;;;;5072553;28;19960;-70
2023/11/12 03:01:40;;;;;;;;;;;;;;;;;;5071538;28;19924;-70
2023/11/12 03:04:10;;;;;;;;;;;;;;;;;;5069801;28;19936;-70
2023/11/12 03:06:37;;;;;;;;;;;;;;;;;;5069957;28;20406;-70
2023/11/12 03:09:06;;;;;;;;;;;;;;;;;;5072341;28;19925;-70
2023/11/12 03:11:33;;;;;;;;;;;;;;;;;;5072279;28;19924;-70
2023/11/12 03:14:00;;;;;;;;;;;;;;;;;;5070378;28;19935;-70
2023/11/12 03:16:29;;;;;;;;;;;;;;;;;;5071293;28;19924;-70
2023/11/12 03:18:56;;;;;;;;;;;;;;;;;;5069061;28;19948;-70
2023/11/12 03:21:23;;;;;;;;;;;;;;;;;;5070315;28;19943;-70
2023/11/12 03:23:50;;;;;;;;;;;;;;;;;;5071955;28;19928;-70
2023/11/12 03:26:17;;;;;;;;;;;;;;;;;;5069268;28;19963;-70
2023/11/12 03:28:44;;;;;;;;;;;;;;;;;;5071046;28;20019;-70
2023/11/12 03:31:11;;;;;;;;;;;;;;;;;;5071925;28;19932;-70
2023/11/12 03:33:38;;;;;;;;;;;;;;;;;;5071010;28;19967;-70
2023/11/12 03:36:05;;;;;;;;;;;;;;;;;;5070098;28;19963;-70
2023/11/12 03:38:32;;;;;;;;;;;;;;;;;;5069582;28;19983;-71
2023/11/12 03:40:59;;;;;;;;;;;;;;;;;;5069791;28;20023;-70
2023/11/12 03:43:26;;;;;;;;;;;;;;;;;;5072071;28;19930;-70
2023/11/12 03:45:53;;;;;;;;;;;;;;;;;;5070376;28;19976;-71
2023/11/12 03:48:21;;;;;;;;;;;;;;;;;;5071548;28;20359;-71
2023/11/12 03:50:48;;;;;;;;;;;;;;;;;;5070639;28;19931;-71
2023/11/12 03:53:15;;;;;;;;;;;;;;;;;;5071212;28;19924;-72
2023/11/12 03:55:42;;;;;;;;;;;;;;;;;;5069819;28;19979;-72
2023/11/12 03:58:09;;;;;;;;;;;;;;;;;;5070651;28;19956;-71
2023/11/12 04:00:36;;;;;;;;;;;;;;;;;;5070937;28;19928;-71
2023/11/12 04:03:03;;;;;;;;;;;;;;;;;;5070150;28;20375;-70
2023/11/12 04:05:30;;;;;;;;;;;;;;;;;;5070892;28;19956;-70
2023/11/12 04:07:57;;;;;;;;;;;;;;;;;;5069952;28;19978;-69
2023/11/12 04:10:24;;;;;;;;;;;;;;;;;;5071123;28;19928;-69
2023/11/12 04:12:51;;;;;;;;;;;;;;;;;;5068087;28;19932;-70
2023/11/12 04:15:18;;;;;;;;;;;;;;;;;;5070235;28;19978;-70
2023/11/12 04:17:45;;;;;;;;;;;;;;;;;;5070022;28;19925;-69
2023/11/12 04:20:14;;;;;;;;;;;;;;;;;;5069808;28;19925;-70
2023/11/12 04:22:42;;;;;;;;;;;;;;;;;;5068257;28;19952;-69
2023/11/12 04:25:09;;;;;;;;;;;;;;;;;;5068141;28;19925;-70
2023/11/12 04:27:37;;;;;;;;;;;;;;;;;;5069905;28;19924;-70
2023/11/12 04:30:05;;;;;;;;;;;;;;;;;;5068885;28;20295;-70
2023/11/12 04:32:35;;;;;;;;;;;;;;;;;;5069395;28;19994;-70
2023/11/12 04:35:02;;;;;;;;;;;;;;;;;;5070209;28;20019;-70
2023/11/12 04:37:29;;;;;;;;;;;;;;;;;;5062772;28;19924;-70
2023/11/12 04:39:56;;;;;;;;;;;;;;;;;;5070530;28;19931;-69
2023/11/12 04:42:23;;;;;;;;;;;;;;;;;;5069748;28;19958;-69
2023/11/12 04:44:50;;;;;;;;;;;;;;;;;;5070567;28;19925;-70
2023/11/12 04:47:17;;;;;;;;;;;;;;;;;;5070121;28;20329;-70
2023/11/12 04:49:44;;;;;;;;;;;;;;;;;;5070173;28;19924;-70
2023/11/12 04:52:11;;;;;;;;;;;;;;;;;;5069854;28;19975;-70
2023/11/12 04:54:38;;;;;;;;;;;;;;;;;;5070329;28;19925;-70
2023/11/12 04:57:05;;;;;;;;;;;;;;;;;;5070192;28;19986;-69
2023/11/12 04:59:32;;;;;;;;;;;;;;;;;;5070234;28;19967;-69
2023/11/12 05:02:00;;;;;;;;;;;;;;;;;;5070530;28;20026;-70
2023/11/12 05:04:28;;;;;;;;;;;;;;;;;;5066065;28;20333;-69
2023/11/12 05:06:55;;;;;;;;;;;;;;;;;;5070019;28;19924;-69
2023/11/12 05:09:22;;;;;;;;;;;;;;;;;;5067884;28;20009;-71
2023/11/12 05:11:49;;;;;;;;;;;;;;;;;;5070692;28;20019;-71
2023/11/12 05:14:16;;;;;;;;;;;;;;;;;;5070860;28;19925;-71
2023/11/12 05:16:43;;;;;;;;;;;;;;;;;;5070513;28;20023;-71
2023/11/12 05:19:10;;;;;;;;;;;;;;;;;;5069479;28;19939;-71
2023/11/12 05:21:37;;;;;;;;;;;;;;;;;;5073837;28;20337;-71
2023/11/12 05:24:04;;;;;;;;;;;;;;;;;;5074838;28;19978;-72
2023/11/12 05:26:32;;;;;;;;;;;;;;;;;;5073116;28;20040;-71
2023/11/12 05:28:59;;;;;;;;;;;;;;;;;;5072160;28;19924;-71
2023/11/12 05:31:26;;;;;;;;;;;;;;;;;;5074150;28;19924;-70
2023/11/12 05:33:53;;;;;;;;;;;;;;;;;;5073732;28;19928;-69
2023/11/12 05:36:20;;;;;;;;;;;;;;;;;;5073528;28;19924;-71
2023/11/12 05:38:47;;;;;;;;;;;;;;;;;;5073041;28;19931;-70
2023/11/12 05:41:14;;;;;;;;;;;;;;;;;;5073440;28;20387;-69
2023/11/12 05:43:41;;;;;;;;;;;;;;;;;;5072483;28;19928;-69
2023/11/12 05:46:08;;;;;;;;;;;;;;;;;;5073905;28;20356;-69
2023/11/12 05:48:35;;;;;;;;;;;;;;;;;;5072895;28;19939;-69
2023/11/12 05:51:02;;;;;;;;;;;;;;;;;;5073187;28;19971;-70
2023/11/12 05:53:29;;;;;;;;;;;;;;;;;;5074151;28;20374;-72
2023/11/12 05:55:56;;;;;;;;;;;;;;;;;;5073651;28;19925;-70
2023/11/12 05:58:24;;;;;;;;;;;;;;;;;;5072479;28;20365;-72
2023/11/12 06:00:54;;;;;;;;;;;;;;;;;;5070460;28;19924;-71
2023/11/12 06:03:22;;;;;;;;;;;;;;;;;;5073125;28;19925;-71
2023/11/12 06:05:49;;;;;;;;;;;;;;;;;;5073580;28;19990;-72
2023/11/12 06:08:16;;;;;;;;;;;;;;;;;;5071623;28;19964;-70
2023/11/12 06:10:43;;;;;;;;;;;;;;;;;;5070529;28;19928;-71
2023/11/12 06:13:10;;;;;;;;;;;;;;;;;;5074219;28;19924;-72
2023/11/12 06:15:37;;;;;;;;;;;;;;;;;;5072004;28;19964;-71
2023/11/12 06:18:05;;;;;;;;;;;;;;;;;;5073071;28;20369;-71
2023/11/12 06:20:32;;;;;;;;;;;;;;;;;;5072165;28;20303;-71
2023/11/12 06:22:59;;;;;;;;;;;;;;;;;;5072647;28;20024;-71
2023/11/12 06:25:26;;;;;;;;;;;;;;;;;;5072902;28;19994;-71
2023/11/12 06:27:53;;;;;;;;;;;;;;;;;;5073740;28;20011;-71
2023/11/12 06:30:20;;;;;;;;;;;;;;;;;;5070676;28;19931;-70
2023/11/12 06:32:47;;;;;;;;;;;;;;;;;;5071051;28;19924;-70
2023/11/12 06:35:14;;;;;;;;;;;;;;;;;;5070258;28;19924;-72
2023/11/12 06:37:41;;;;;;;;;;;;;;;;;;5073228;28;19975;-70
2023/11/12 06:40:08;;;;;;;;;;;;;;;;;;5070387;28;19924;-71
2023/11/12 06:42:35;;;;;;;;;;;;;;;;;;5074220;28;19948;-71
2023/11/12 06:45:02;;;;;;;;;;;;;;;;;;5071661;28;19971;-70
2023/11/12 06:47:31;;;;;;;;;;;;;;;;;;5072277;28;19935;-71
2023/11/12 06:49:58;;;;;;;;;;;;;;;;;;5068595;28;20327;-70
2023/11/12 06:52:25;;;;;;;;;;;;;;;;;;5068878;28;19977;-69
2023/11/12 06:54:52;;;;;;;;;;;;;;;;;;5071301;28;19935;-73
2023/11/12 06:57:19;;;;;;;;;;;;;;;;;;5083818;28;19972;-72
2023/11/12 06:59:46;;;;;;;;;;;;;;;;;;5064415;28;19929;-71
2023/11/12 07:02:15;;;;;;;;;;;;;;;;;;5068881;28;19924;-70
2023/11/12 07:04:42;;;;;;;;;;;;;;;;;;5067958;28;20284;-71
2023/11/12 07:07:09;;;;;;;;;;;;;;;;;;5067416;28;19944;-71
2023/11/12 07:09:36;;;;;;;;;;;;;;;;;;5070287;28;20351;-70
2023/11/12 07:12:04;;;;;;;;;;;;;;;;;;5072153;28;20331;-70
2023/11/12 07:14:31;;;;;;;;;;;;;;;;;;5071329;28;19959;-70
2023/11/12 07:16:58;;;;;;;;;;;;;;;;;;5071388;28;19960;-71
2023/11/12 07:19:28;;;;;;;;;;;;;;;;;;5070561;28;19974;-70
2023/11/12 07:21:55;;;;;;;;;;;;;;;;;;5068115;28;20401;-71
2023/11/12 07:24:22;;;;;;;;;;;;;;;;;;5071597;28;20302;-72
2023/11/12 07:26:49;;;;;;;;;;;;;;;;;;5072167;28;20038;-71
2023/11/12 07:29:16;;;;;;;;;;;;;;;;;;5071129;28;20420;-72
2023/11/12 07:31:43;;;;;;;;;;;;;;;;;;5068289;28;20019;-72
2023/11/12 07:34:10;;;;;;;;;;;;;;;;;;5071258;28;19924;-73
2023/11/12 07:36:37;;;;;;;;;;;;;;;;;;5070770;28;19978;-72
2023/11/12 07:39:04;;;;;;;;;;;;;;;;;;5071089;28;19931;-71
2023/11/12 07:41:32;;;;;;;;;;;;;;;;;;5068979;28;19952;-72
2023/11/12 07:43:59;;;;;;;;;;;;;;;;;;5071699;28;20342;-71
2023/11/12 07:46:26;;;;;;;;;;;;;;;;;;5071312;28;20019;-72
2023/11/12 07:48:53;;;;;;;;;;;;;;;;;;5071824;28;20367;-71
2023/11/12 07:51:20;;;;;;;;;;;;;;;;;;5071478;28;19972;-72
2023/11/12 07:53:48;;;;;;;;;;;;;;;;;;5070761;28;19925;-72
2023/11/12 07:56:15;;;;;;;;;;;;;;;;;;5070695;28;19951;-72
2023/11/12 07:58:42;;;;;;;;;;;;;;;;;;5071462;28;19992;-70
2023/11/12 08:01:09;;;;;;;;;;;;;;;;;;5071504;28;19978;-69
2023/11/12 08:03:36;;;;;;;;;;;;;;;;;;5069151;28;19924;-69
2023/11/12 08:06:04;;;;;;;;;;;;;;;;;;5067053;28;19924;-70
2023/11/12 08:08:31;;;;;;;;;;;;;;;;;;5071652;28;19924;-71
2023/11/12 08:10:59;;;;;;;;;;;;;;;;;;5069094;28;19996;-70
2023/11/12 08:13:26;;;;;;;;;;;;;;;;;;5070050;28;20314;-71
2023/11/12 08:15:53;;;;;;;;;;;;;;;;;;5071065;28;19932;-70
2023/11/12 08:18:22;;;;;;;;;;;;;;;;;;5072300;28;20383;-70
2023/11/12 08:20:49;;;;;;;;;;;;;;;;;;5070222;28;19975;-70
2023/11/12 08:23:16;;;;;;;;;;;;;;;;;;5070718;28;19931;-70
2023/11/12 08:25:44;;;;;;;;;;;;;;;;;;5070243;28;19929;-70
2023/11/12 08:28:12;;;;;;;;;;;;;;;;;;5069819;28;19924;-71
2023/11/12 08:30:39;;;;;;;;;;;;;;;;;;5070571;28;19947;-70
2023/11/12 08:33:06;;;;;;;;;;;;;;;;;;5068981;28;19971;-71
2023/11/12 08:35:33;;;;;;;;;;;;;;;;;;5070508;28;19983;-70
2023/11/12 08:38:00;;;;;;;;;;;;;;;;;;5073958;28;20023;-70
2023/11/12 08:40:27;;;;;;;;;;;;;;;;;;5084240;28;19971;-71
2023/11/12 08:42:54;;;;;;;;;;;;;;;;;;5073629;28;19924;-69
2023/11/12 08:45:22;;;;;;;;;;;;;;;;;;5069397;28;19924;-70
2023/11/12 08:47:49;;;;;;;;;;;;;;;;;;5071675;28;19925;-69
2023/11/12 08:50:16;;;;;;;;;;;;;;;;;;5070088;28;19930;-70
2023/11/12 08:52:43;;;;;;;;;;;;;;;;;;5069156;28;20015;-69
2023/11/12 08:55:11;;;;;;;;;;;;;;;;;;5073543;28;19932;-69
2023/11/12 08:57:38;;;;;;;;;;;;;;;;;;5073933;28;19932;-69
2023/11/12 09:00:06;;;;;;;;;;;;;;;;;;5056422;28;20056;-70
2023/11/12 09:02:35;;;;;;;;;;;;;;;;;;5073744;28;20322;-70
2023/11/12 09:05:04;;;;;;;;;;;;;;;;;;5074676;28;19925;-69
2023/11/12 09:07:33;;;;;;;;;;;;;;;;;;5075521;28;19931;-70
2023/11/12 09:10:00;;;;;;;;;;;;;;;;;;5073822;28;20347;-69
2023/11/12 09:12:28;;;;;;;;;;;;;;;;;;5074347;28;19924;-70
2023/11/12 09:14:56;;;;;;;;;;;;;;;;;;5074732;28;19925;-70
2023/11/12 09:17:23;;;;;;;;;;;;;;;;;;5075863;22;20271;-70
2023/11/12 09:19:50;;;;;;;;;;;;;;;;;;5021391;28;19975;-70
2023/11/12 09:22:17;;;;;;;;;;;;;;;;;;5045141;28;19979;-71
2023/11/12 09:24:45;;;;;;;;;;;;;;;;;;5035068;28;20393;-71
2023/11/12 09:27:12;;;;;;;;;;;;;;;;;;5034392;28;19983;-70
2023/11/12 09:29:39;;;;;;;;;;;;;;;;;;5035158;28;19929;-71
2023/11/12 09:32:06;;;;;;;;;;;;;;;;;;5035763;28;20024;-69
2023/11/12 09:34:33;;;;;;;;;;;;;;;;;;5030794;28;19934;-70
2023/11/12 09:37:01;;;;;;;;;;;;;;;;;;5026439;28;20024;-69
2023/11/12 09:39:29;;;;;;;;;;;;;;;;;;5033645;28;20008;-68
2023/11/12 09:41:56;;;;;;;;;;;;;;;;;;5034930;28;20371;-70
2023/11/12 09:44:23;;;;;;;;;;;;;;;;;;5032155;28;20004;-72
2023/11/12 09:46:51;;;;;;;;;;;;;;;;;;5034552;28;20016;-70
2023/11/12 09:49:18;;;;;;;;;;;;;;;;;;5033498;28;19999;-70
2023/11/12 09:51:45;;;;;;;;;;;;;;;;;;5032791;28;19925;-71
2023/11/12 09:54:12;;;;;;;;;;;;;;;;;;5038290;28;20027;-69
2023/11/12 09:56:39;;;;;;;;;;;;;;;;;;5032022;28;20443;-69
2023/11/12 09:59:06;;;;;;;;;;;;;;;;;;5042812;28;20020;-69
2023/11/12 10:01:33;;;;;;;;;;;;;;;;;;5053327;28;19929;-69
2023/11/12 10:04:01;;;;;;;;;;;;;;;;;;5036377;28;20016;-69
2023/11/12 10:06:28;;;;;;;;;;;;;;;;;;5031453;28;20388;-69
2023/11/12 10:08:55;;;;;;;;;;;;;;;;;;5011838;28;19979;-69
2023/11/12 10:11:22;;;;;;;;;;;;;;;;;;5012306;28;20455;-69
2023/11/12 10:13:49;;;;;;;;;;;;;;;;;;5017725;28;20324;-69
2023/11/12 10:16:16;;;;;;;;;;;;;;;;;;5016637;28;20358;-70
2023/11/12 10:18:43;;;;;;;;;;;;;;;;;;5018735;28;20111;-69
2023/11/12 10:21:10;;;;;;;;;;;;;;;;;;5014354;28;20020;-70
2023/11/12 10:23:37;;;;;;;;;;;;;;;;;;5016575;28;19948;-70
2023/11/12 10:26:04;;;;;;;;;;;;;;;;;;5016144;28;20559;-70
2023/11/12 10:28:31;;;;;;;;;;;;;;;;;;5016016;28;20046;-70
2023/11/12 10:30:58;;;;;;;;;;;;;;;;;;5013409;28;20165;-70
2023/11/12 10:33:27;;;;;;;;;;;;;;;;;;5014273;28;19927;-71
2023/11/12 10:35:55;;;;;;;;;;;;;;;;;;5023537;28;19944;-70
2023/11/12 10:38:23;;;;;;;;;;;;;;;;;;5011093;28;20466;-71
2023/11/12 10:40:50;;;;;;;;;;;;;;;;;;5012102;28;19933;-71
2023/11/12 10:43:18;;;;;;;;;;;;;;;;;;5013417;28;19929;-71
2023/11/12 10:45:45;;;;;;;;;;;;;;;;;;5012616;28;19925;-71
2023/11/12 10:48:13;;;;;;;;;;;;;;;;;;5014596;28;19940;-71
2023/11/12 10:50:40;;;;;;;;;;;;;;;;;;5013611;28;19925;-71
2023/11/12 10:53:07;;;;;;;;;;;;;;;;;;5014809;28;19944;-71
2023/11/12 10:55:40;;;;;;;;;;;;;;;;;;5011322;28;19940;-71
2023/11/12 10:58:08;;;;;;;;;;;;;;;;;;5013981;28;19929;-70
2023/11/12 11:00:36;;;;;;;;;;;;;;;;;;5018496;28;19972;-70
2023/11/12 11:03:03;;;;;;;;;;;;;;;;;;5015581;28;20019;-71
2023/11/12 11:05:30;;;;;;;;;;;;;;;;;;5004942;28;19930;-70
2023/11/12 11:07:57;;;;;;;;;;;;;;;;;;5011984;28;19933;-69
2023/11/12 11:10:24;;;;;;;;;;;;;;;;;;5011774;28;19932;-70
2023/11/12 11:12:51;;;;;;;;;;;;;;;;;;5011891;28;19960;-71
2023/11/12 11:15:19;;;;;;;;;;;;;;;;;;5013939;28;19934;-69
2023/11/12 11:17:47;;;;;;;;;;;;;;;;;;5014285;28;20544;-70
2023/11/12 11:20:14;;;;;;;;;;;;;;;;;;5009801;28;19991;-70
2023/11/12 11:22:41;;;;;;;;;;;;;;;;;;5011791;28;19956;-70
2023/11/12 11:25:08;;;;;;;;;;;;;;;;;;5012549;28;19969;-70
2023/11/12 11:27:35;;;;;;;;;;;;;;;;;;5007721;28;20068;-69
2023/11/12 11:30:02;;;;;;;;;;;;;;;;;;5011014;28;19933;-69
2023/11/12 11:32:32;;;;;;;;;;;;;;;;;;5011555;28;20589;-72
2023/11/12 11:35:01;;;;;;;;;;;;;;;;;;5015856;28;20346;-71
2023/11/12 11:37:29;;;;;;;;;;;;;;;;;;5013034;28;19925;-70
2023/11/12 11:39:57;;;;;;;;;;;;;;;;;;5012091;28;20401;-71
2023/11/12 11:42:26;;;;;;;;;;;;;;;;;;5015703;28;20024;-70
2023/11/12 11:44:53;;;;;;;;;;;;;;;;;;5012102;28;20043;-70
2023/11/12 11:47:26;;;;;;;;;;;;;;;;;;5013403;28;19995;-70
2023/11/12 11:49:53;;;;;;;;;;;;;;;;;;5012417;28;19933;-70
2023/11/12 11:52:20;;;;;;;;;;;;;;;;;;5010116;28;19929;-70
2023/11/12 11:54:47;;;;;;;;;;;;;;;;;;5011456;28;20012;-69
2023/11/12 11:57:16;;;;;;;;;;;;;;;;;;5009730;28;20051;-69
2023/11/12 11:59:45;;;;;;;;;;;;;;;;;;5009582;28;19933;-70
2023/11/12 12:02:16;;;;;;;;;;;;;;;;;;5011346;28;19956;-69
2023/11/12 12:04:43;;;;;;;;;;;;;;;;;;5011964;28;19965;-70
2023/11/12 12:07:10;;;;;;;;;;;;;;;;;;5011388;28;19998;-70
2023/11/12 12:09:37;;;;;;;;;;;;;;;;;;5015329;28;19925;-70
2023/11/12 12:12:04;;;;;;;;;;;;;;;;;;5013590;28;19937;-70
2023/11/12 12:14:31;;;;;;;;;;;;;;;;;;5007644;28;19944;-72
2023/11/12 12:16:59;;;;;;;;;;;;;;;;;;5011768;28;19951;-72
2023/11/12 12:19:26;;;;;;;;;;;;;;;;;;5012665;28;20419;-74
2023/11/12 12:21:55;;;;;;;;;;;;;;;;;;5010006;28;19933;-71
2023/11/12 12:24:22;;;;;;;;;;;;;;;;;;5011890;28;19925;-71
2023/11/12 12:26:50;;;;;;;;;;;;;;;;;;5012527;28;20398;-70
2023/11/12 12:29:17;;;;;;;;;;;;;;;;;;5011575;28;19925;-69
2023/11/12 12:31:44;;;;;;;;;;;;;;;;;;5017194;28;19964;-71
2023/11/12 12:34:11;;;;;;;;;;;;;;;;;;5015458;28;19929;-70
2023/11/12 12:36:39;;;;;;;;;;;;;;;;;;5017207;28;19925;-71
2023/11/12 12:39:08;;;;;;;;;;;;;;;;;;5017429;28;19956;-72
2023/11/12 12:41:36;;;;;;;;;;;;;;;;;;5015005;28;20019;-71
2023/11/12 12:44:03;;;;;;;;;;;;;;;;;;5014833;28;20028;-71
2023/11/12 12:46:31;;;;;;;;;;;;;;;;;;5017679;28;20449;-71
2023/11/12 12:49:00;;;;;;;;;;;;;;;;;;5017332;28;19990;-72
2023/11/12 12:51:34;;;;;;;;;;;;;;;;;;5018433;28;19933;-73
2023/11/12 12:54:04;;;;;;;;;;;;;;;;;;5018093;28;19932;-72
2023/11/12 12:56:32;;;;;;;;;;;;;;;;;;5017996;28;20319;-70
2023/11/12 12:58:59;;;;;;;;;;;;;;;;;;5017144;28;20980;-70
2023/11/12 13:01:26;;;;;;;;;;;;;;;;;;5017491;28;20310;-70
2023/11/12 13:03:57;;;;;;;;;;;;;;;;;;5017915;28;19925;-72
2023/11/12 13:06:26;;;;;;;;;;;;;;;;;;5017878;28;19933;-71
2023/11/12 13:08:53;;;;;;;;;;;;;;;;;;5017271;28;20403;-71
2023/11/12 13:11:25;;;;;;;;;;;;;;;;;;5013011;28;19929;-72
2023/11/12 13:13:54;;;;;;;;;;;;;;;;;;5014408;28;19944;-72
2023/11/12 13:16:23;;;;;;;;;;;;;;;;;;5015064;28;20352;-72
2023/11/12 13:18:51;;;;;;;;;;;;;;;;;;5016856;28;19957;-72
2023/11/12 13:21:19;;;;;;;;;;;;;;;;;;5016644;28;19987;-71
2023/11/12 13:23:46;;;;;;;;;;;;;;;;;;5014170;28;19937;-72
2023/11/12 13:26:15;;;;;;;;;;;;;;;;;;5015626;28;19998;-70
2023/11/12 13:28:43;;;;;;;;;;;;;;;;;;5016871;28;20520;-69
2023/11/12 13:31:10;;;;;;;;;;;;;;;;;;5013595;28;19936;-69
2023/11/12 13:33:41;;;;;;;;;;;;;;;;;;5014544;28;20024;-69
2023/11/12 13:36:09;;;;;;;;;;;;;;;;;;5014163;28;19929;-72
2023/11/12 13:38:36;;;;;;;;;;;;;;;;;;5015979;28;20044;-70
2023/11/12 13:41:03;;;;;;;;;;;;;;;;;;5014032;28;19931;-71
2023/11/12 13:43:33;;;;;;;;;;;;;;;;;;5017556;28;19925;-70
2023/11/12 13:46:00;;;;;;;;;;;;;;;;;;5014756;28;21845;-70
2023/11/12 13:48:28;;;;;;;;;;;;;;;;;;5013592;28;19986;-70
2023/11/12 13:50:55;;;;;;;;;;;;;;;;;;5015850;28;19925;-69
2023/11/12 13:53:23;;;;;;;;;;;;;;;;;;5009706;28;20008;-70
2023/11/12 13:55:55;;;;;;;;;;;;;;;;;;5015443;28;19925;-70
2023/11/12 13:58:22;;;;;;;;;;;;;;;;;;5015784;28;20020;-70
2023/11/12 14:00:49;;;;;;;;;;;;;;;;;;5026028;28;19925;-71
2023/11/12 14:03:17;;;;;;;;;;;;;;;;;;5013076;28;19933;-70
2023/11/12 14:05:44;;;;;;;;;;;;;;;;;;5016042;28;19932;-71
2023/11/12 14:08:11;;;;;;;;;;;;;;;;;;5015383;28;19925;-70
2023/11/12 14:10:40;;;;;;;;;;;;;;;;;;5014162;28;20399;-71
2023/11/12 14:13:09;;;;;;;;;;;;;;;;;;5016751;28;19925;-72
2023/11/12 14:15:36;;;;;;;;;;;;;;;;;;5014300;28;19932;-70
2023/11/12 14:18:04;;;;;;;;;;;;;;;;;;5014892;28;19952;-70
2023/11/12 14:20:33;;;;;;;;;;;;;;;;;;5013394;28;20028;-70
2023/11/12 14:23:01;;;;;;;;;;;;;;;;;;5013159;28;19926;-70
2023/11/12 14:25:30;;;;;;;;;;;;;;;;;;5012232;28;20374;-71
2023/11/12 14:27:57;;;;;;;;;;;;;;;;;;5018154;28;19925;-71
2023/11/12 14:30:24;;;;;;;;;;;;;;;;;;5017042;28;19929;-71
2023/11/12 14:32:51;;;;;;;;;;;;;;;;;;5021797;28;19929;-71
2023/11/12 14:35:21;;;;;;;;;;;;;;;;;;5022627;28;19925;-71
2023/11/12 14:37:48;;;;;;;;;;;;;;;;;;5024958;28;20022;-71
2023/11/12 14:40:16;;;;;;;;;;;;;;;;;;5016212;28;20665;-71
2023/11/12 14:42:43;;;;;;;;;;;;;;;;;;5012534;28;19932;-72
2023/11/12 14:45:12;;;;;;;;;;;;;;;;;;5011001;28;20016;-71
2023/11/12 14:47:40;;;;;;;;;;;;;;;;;;5014405;28;20020;-71
2023/11/12 14:50:07;;;;;;;;;;;;;;;;;;5012864;28;19929;-72
2023/11/12 14:52:34;;;;;;;;;;;;;;;;;;5017522;28;20919;-71
2023/11/12 14:55:03;;;;;;;;;;;;;;;;;;5015777;28;20040;-71
2023/11/12 14:57:30;;;;;;;;;;;;;;;;;;5014909;28;19933;-71
2023/11/12 14:59:58;;;;;;;;;;;;;;;;;;5018233;28;19933;-70
2023/11/12 15:02:25;;;;;;;;;;;;;;;;;;5016992;28;19925;-70
2023/11/12 15:04:52;;;;;;;;;;;;;;;;;;5014937;28;20050;-70
2023/11/12 15:07:19;;;;;;;;;;;;;;;;;;5015499;28;19933;-70
2023/11/12 15:09:48;;;;;;;;;;;;;;;;;;5029703;28;20008;-70
2023/11/12 15:12:15;;;;;;;;;;;;;;;;;;5014493;28;20311;-70
2023/11/12 15:14:43;;;;;;;;;;;;;;;;;;5015504;28;19925;-70
2023/11/12 15:17:10;;;;;;;;;;;;;;;;;;5024442;28;19975;-70
2023/11/12 15:19:39;;;;;;;;;;;;;;;;;;5011624;28;19933;-71
2023/11/12 15:22:07;;;;;;;;;;;;;;;;;;5017642;28;19972;-71
2023/11/12 15:24:35;;;;;;;;;;;;;;;;;;5016602;28;19929;-71
2023/11/12 15:27:02;;;;;;;;;;;;;;;;;;5017278;28;20354;-70
2023/11/12 15:29:29;;;;;;;;;;;;;;;;;;5018887;28;20013;-71
2023/11/12 15:31:56;;;;;;;;;;;;;;;;;;5019536;28;20501;-71
2023/11/12 15:34:23;;;;;;;;;;;;;;;;;;5013462;28;19972;-71
2023/11/12 15:36:50;;;;;;;;;;;;;;;;;;5011350;28;20026;-70
2023/11/12 15:39:19;;;;;;;;;;;;;;;;;;5016891;28;20000;-69
2023/11/12 15:41:46;;;;;;;;;;;;;;;;;;5012254;28;20290;-70
2023/11/12 15:44:13;;;;;;;;;;;;;;;;;;5019953;28;19932;-70
2023/11/12 15:46:43;;;;;;;;;;;;;;;;;;5017542;28;20440;-69
2023/11/12 15:49:10;;;;;;;;;;;;;;;;;;5014533;28;19933;-69
2023/11/12 15:51:37;;;;;;;;;;;;;;;;;;5017566;28;19925;-69
2023/11/12 15:54:12;;;;;;;;;;;;;;;;;;5017264;28;20031;-70
2023/11/12 15:56:43;;;;;;;;;;;;;;;;;;5018164;28;19979;-70
2023/11/12 15:59:10;;;;;;;;;;;;;;;;;;5011825;28;19929;-73
2023/11/12 16:01:37;;;;;;;;;;;;;;;;;;5016365;28;20023;-71
2023/11/12 16:04:05;;;;;;;;;;;;;;;;;;5012845;28;19932;-69
2023/11/12 16:06:34;;;;;;;;;;;;;;;;;;5012650;28;19937;-71
2023/11/12 16:09:08;;;;;;;;;;;;;;;;;;5016438;28;20015;-69
2023/11/12 16:11:35;;;;;;;;;;;;;;;;;;5017817;28;19925;-69
2023/11/12 16:14:03;;;;;;;;;;;;;;;;;;5009547;28;19934;-70
2023/11/12 16:16:31;;;;;;;;;;;;;;;;;;5003870;28;19960;-71
2023/11/12 16:18:58;;;;;;;;;;;;;;;;;;5016453;28;20414;-71
2023/11/12 16:21:27;;;;;;;;;;;;;;;;;;5015943;28;20014;-69
2023/11/12 16:23:54;;;;;;;;;;;;;;;;;;5022142;28;20007;-71
2023/11/12 16:26:21;;;;;;;;;;;;;;;;;;5018125;28;20303;-71
2023/11/12 16:28:48;;;;;;;;;;;;;;;;;;5017519;28;19929;-70
2023/11/12 16:31:15;;;;;;;;;;;;;;;;;;5016403;28;20063;-70
2023/11/12 16:33:42;;;;;;;;;;;;;;;;;;5022939;28;19929;-71
2023/11/12 16:36:09;;;;;;;;;;;;;;;;;;5021870;28;19972;-69
2023/11/12 16:38:36;;;;;;;;;;;;;;;;;;5015814;28;19925;-70
2023/11/12 16:41:04;;;;;;;;;;;;;;;;;;5016444;28;20034;-69
2023/11/12 16:43:31;;;;;;;;;;;;;;;;;;5020897;28;19925;-69
2023/11/12 16:45:58;;;;;;;;;;;;;;;;;;5016224;28;19929;-70
2023/11/12 16:48:25;;;;;;;;;;;;;;;;;;5014005;28;20024;-70